Time;durP1;ratioP1;P1;durP2;ratioP2;P2;SDS_P1;SDS_P2;PMS_P1;PMS_P2;Temp;Humidity;BMP_temperature;BMP_pressure;BME280_temperature;BME280_humidity;BME280_pressure;Samples;Min_cycle;Max_cycle;Signal;HPM_P1;HPM_P2
2023/11/01 00:01:41;;;;;;;11.98;4.60;;;;;;;;;;6303258;28;20056;-93
2023/11/01 00:04:43;;;;;;;10.15;5.55;;;;;;;;;;6309008;28;20176;-95
2023/11/01 00:07:44;;;;;;;8.05;4.47;;;;;;;;;;6307294;28;20056;-94
2023/11/01 00:10:48;;;;;;;9.00;4.72;;;;;;;;;;6303578;28;21113;-93
2023/11/01 00:13:50;;;;;;;9.07;4.38;;;;;;;;;;6314147;28;20096;-93
2023/11/01 00:16:52;;;;;;;7.38;4.80;;;;;;;;;;6315881;28;20147;-91
2023/11/01 00:19:54;;;;;;;6.45;4.25;;;;;;;;;;6322813;28;20431;-94
2023/11/01 00:22:56;;;;;;;8.88;5.13;;;;;;;;;;6318730;28;20040;-94
2023/11/01 00:25:59;;;;;;;8.52;4.35;;;;;;;;;;6313184;28;20064;-94
2023/11/01 00:29:01;;;;;;;7.95;4.38;;;;;;;;;;6304801;28;20048;-95
2023/11/01 00:32:04;;;;;;;7.25;4.35;;;;;;;;;;6301558;28;20220;-93
2023/11/01 00:35:06;;;;;;;9.23;5.03;;;;;;;;;;6304072;28;20048;-96
2023/11/01 00:38:08;;;;;;;6.88;4.32;;;;;;;;;;6306649;28;20220;-94
2023/11/01 00:41:12;;;;;;;7.28;4.53;;;;;;;;;;6306496;28;20064;-95
2023/11/01 00:44:14;;;;;;;11.23;4.93;;;;;;;;;;6285069;28;20078;-96
2023/11/01 00:47:16;;;;;;;9.98;4.30;;;;;;;;;;6302664;28;20273;-95
2023/11/01 00:50:18;;;;;;;7.93;4.93;;;;;;;;;;6308717;28;20055;-94
2023/11/01 00:53:22;;;;;;;7.13;4.25;;;;;;;;;;6274979;28;20252;-94
2023/11/01 00:59:41;;;;;;;9.70;4.60;;;;;;;;;;6302976;28;20355;-93
2023/11/01 01:02:43;;;;;;;7.10;4.10;;;;;;;;;;6301392;28;20266;-94
2023/11/01 01:05:45;;;;;;;8.50;4.45;;;;;;;;;;6309654;28;20048;-94
2023/11/01 01:08:47;;;;;;;8.23;4.15;;;;;;;;;;6300341;28;20056;-95
2023/11/01 01:11:50;;;;;;;8.00;4.47;;;;;;;;;;6304283;28;20248;-91
2023/11/01 01:14:52;;;;;;;6.72;4.15;;;;;;;;;;6304352;28;20119;-94
2023/11/01 01:17:54;;;;;;;7.88;4.40;;;;;;;;;;6305817;28;20059;-93
2023/11/01 01:20:56;;;;;;;6.93;4.57;;;;;;;;;;6307424;28;20048;-95
2023/11/01 01:23:58;;;;;;;9.45;4.88;;;;;;;;;;6304868;28;20044;-94
2023/11/01 01:27:01;;;;;;;6.05;3.53;;;;;;;;;;6308091;28;20045;-95
2023/11/01 01:30:04;;;;;;;7.00;4.03;;;;;;;;;;6304740;28;20048;-93
2023/11/01 01:33:06;;;;;;;6.90;4.38;;;;;;;;;;6306338;28;20394;-94
2023/11/01 01:36:08;;;;;;;8.55;4.45;;;;;;;;;;6306637;28;20059;-91
2023/11/01 01:39:10;;;;;;;9.25;4.57;;;;;;;;;;6313736;28;20111;-94
2023/11/01 01:42:14;;;;;;;9.95;5.10;;;;;;;;;;6306020;28;20052;-95
2023/11/01 01:45:16;;;;;;;;;;;;;;;;;;6307669;28;20105;-95
2023/11/01 01:48:18;;;;;;;11.77;4.78;;;;;;;;;;6306995;28;20460;-94
2023/11/01 01:51:20;;;;;;;9.52;5.65;;;;;;;;;;6301783;28;20356;-95
2023/11/01 01:54:22;;;;;;;9.00;5.63;;;;;;;;;;6303671;28;20384;-94
2023/11/01 01:57:29;;;;;;;8.98;5.57;;;;;;;;;;6303481;28;20048;-95
2023/11/01 02:00:35;;;;;;;9.93;6.22;;;;;;;;;;6295546;28;20329;-93
2023/11/01 02:03:37;;;;;;;13.95;6.57;;;;;;;;;;6306184;28;20055;-94
2023/11/01 02:06:39;;;;;;;11.60;6.88;;;;;;;;;;6301917;28;20052;-94
2023/11/01 02:09:41;;;;;;;11.00;7.65;;;;;;;;;;6304425;28;20052;-92
2023/11/01 02:12:44;;;;;;;11.63;7.53;;;;;;;;;;6300511;28;20115;-93
2023/11/01 02:15:46;;;;;;;13.50;7.53;;;;;;;;;;6306989;28;20044;-93
2023/11/01 02:18:48;;;;;;;10.88;7.82;;;;;;;;;;6299720;28;20044;-94
2023/11/01 02:21:50;;;;;;;12.45;7.85;;;;;;;;;;6300307;28;20078;-94
2023/11/01 02:24:54;;;;;;;11.85;7.00;;;;;;;;;;6303807;28;20062;-95
2023/11/01 02:27:56;;;;;;;10.60;6.97;;;;;;;;;;6301521;28;20052;-94
2023/11/01 02:30:58;;;;;;;11.05;6.78;;;;;;;;;;6302084;28;20044;-94
2023/11/01 02:34:00;;;;;;;12.00;7.50;;;;;;;;;;6309283;28;20052;-95
2023/11/01 02:37:02;;;;;;;9.10;6.20;;;;;;;;;;6298144;28;20063;-94
2023/11/01 02:40:09;;;;;;;9.52;6.22;;;;;;;;;;6301020;28;20123;-93
2023/11/01 02:43:11;;;;;;;10.10;6.55;;;;;;;;;;6302848;28;20067;-95
2023/11/01 02:46:13;;;;;;;10.25;6.47;;;;;;;;;;6307862;28;20055;-96
2023/11/01 02:49:15;;;;;;;15.35;7.28;;;;;;;;;;6310551;28;20341;-96
2023/11/01 02:52:16;;;;;;;11.57;5.90;;;;;;;;;;6315283;28;20059;-94
2023/11/01 02:55:20;;;;;;;9.43;5.53;;;;;;;;;;6310506;28;20094;-95
2023/11/01 02:58:23;;;;;;;8.38;5.50;;;;;;;;;;6314128;28;20047;-96
2023/11/01 03:01:26;;;;;;;6.00;4.22;;;;;;;;;;6307804;28;20333;-94
2023/11/01 03:04:28;;;;;;;7.35;4.00;;;;;;;;;;6308805;28;20090;-96
2023/11/01 03:07:29;;;;;;;12.95;5.13;;;;;;;;;;6311186;28;20056;-96
2023/11/01 03:13:49;;;;;;;6.82;4.13;;;;;;;;;;6308964;28;20321;-95
2023/11/01 03:16:50;;;;;;;10.20;4.47;;;;;;;;;;6308177;28;20800;-95
2023/11/01 03:19:53;;;;;;;8.10;5.07;;;;;;;;;;6306257;28;20052;-96
2023/11/01 03:22:55;;;;;;;7.57;4.18;;;;;;;;;;6305660;28;20124;-95
2023/11/01 03:25:58;;;;;;;7.50;4.40;;;;;;;;;;6305069;28;20052;-95
2023/11/01 03:29:00;;;;;;;6.03;4.22;;;;;;;;;;6304225;28;20059;-96
2023/11/01 03:32:02;;;;;;;8.98;4.43;;;;;;;;;;6306625;28;20053;-96
2023/11/01 03:35:05;;;;;;;8.02;4.20;;;;;;;;;;6306621;28;20040;-94
2023/11/01 03:38:07;;;;;;;8.30;3.97;;;;;;;;;;6306841;28;20257;-96
2023/11/01 03:44:26;;;;;;;5.03;3.75;;;;;;;;;;6309308;28;20040;-96
2023/11/01 03:47:28;;;;;;;4.65;2.83;;;;;;;;;;6304235;28;20052;-96
2023/11/01 03:50:30;;;;;;;4.15;2.55;;;;;;;;;;6294220;28;20050;-95
2023/11/01 03:53:32;;;;;;;4.13;2.40;;;;;;;;;;6308537;28;20053;-95
2023/11/01 03:59:51;;;;;;;4.70;2.28;;;;;;;;;;6286539;28;20041;-95
2023/11/01 04:02:53;;;;;;;19.23;10.70;;;;;;;;;;6303401;28;20052;-95
2023/11/01 04:05:55;;;;;;;162.55;74.22;;;;;;;;;;6307473;28;20079;-95
2023/11/01 04:08:57;;;;;;;21.52;11.88;;;;;;;;;;6306961;28;20051;-93
2023/11/01 04:12:01;;;;;;;93.95;36.72;;;;;;;;;;6287752;28;20087;-96
2023/11/01 04:15:05;;;;;;;112.00;46.33;;;;;;;;;;6302494;28;20059;-93
2023/11/01 04:18:26;;;;;;;11.23;4.72;;;;;;;;;;6301358;28;20076;-94
2023/11/01 04:21:28;;;;;;;3.22;2.05;;;;;;;;;;6296081;28;20040;-96
2023/11/01 04:24:30;;;;;;;4.97;1.80;;;;;;;;;;6305921;28;20067;-95
2023/11/01 04:27:39;;;;;;;4.32;1.90;;;;;;;;;;6307121;28;20056;-93
2023/11/01 04:30:41;;;;;;;4.07;1.75;;;;;;;;;;6272034;28;20055;-95
2023/11/01 04:33:43;;;;;;;6.10;1.70;;;;;;;;;;6306440;28;20044;-95
2023/11/01 04:36:45;;;;;;;3.33;1.90;;;;;;;;;;6305279;28;20112;-95
2023/11/01 04:39:47;;;;;;;2.78;1.80;;;;;;;;;;6307099;28;20048;-95
2023/11/01 04:42:50;;;;;;;3.80;1.77;;;;;;;;;;6307939;28;20229;-96
2023/11/01 04:45:53;;;;;;;2.70;1.60;;;;;;;;;;6307506;28;20106;-96
2023/11/01 04:48:55;;;;;;;3.63;1.85;;;;;;;;;;6305919;28;20463;-96
2023/11/01 04:51:57;;;;;;;4.05;1.63;;;;;;;;;;6303004;28;20440;-96
2023/11/01 04:54:58;;;;;;;2.92;1.83;;;;;;;;;;6307156;28;20156;-95
2023/11/01 04:58:02;;;;;;;2.72;1.80;;;;;;;;;;6307569;28;20055;-96
2023/11/01 05:01:06;;;;;;;6.45;1.83;;;;;;;;;;6306259;28;20063;-95
2023/11/01 05:04:07;;;;;;;3.47;1.90;;;;;;;;;;6305942;28;20052;-96
2023/11/01 05:07:09;;;;;;;3.63;2.15;;;;;;;;;;6299954;28;20052;-96
2023/11/01 05:10:11;;;;;;;3.35;2.00;;;;;;;;;;6300160;28;20052;-96
2023/11/01 05:13:15;;;;;;;5.80;2.03;;;;;;;;;;6301698;28;20055;-96
2023/11/01 05:16:16;;;;;;;5.40;1.77;;;;;;;;;;6304766;28;20067;-96
2023/11/01 05:19:19;;;;;;;5.45;2.10;;;;;;;;;;6307303;28;20060;-96
2023/11/01 05:22:21;;;;;;;4.47;2.08;;;;;;;;;;6307102;28;20053;-95
2023/11/01 05:25:25;;;;;;;3.20;2.00;;;;;;;;;;6300055;28;20052;-95
2023/11/01 05:28:28;;;;;;;2.45;1.77;;;;;;;;;;6307344;28;20048;-95
2023/11/01 05:31:32;;;;;;;3.45;2.10;;;;;;;;;;6304681;28;20052;-96
2023/11/01 05:34:34;;;;;;;4.57;2.55;;;;;;;;;;6304122;28;20067;-95
2023/11/01 05:37:36;;;;;;;6.35;2.50;;;;;;;;;;6311338;28;20053;-96
2023/11/01 05:40:38;;;;;;;4.10;2.10;;;;;;;;;;6303659;28;20051;-96
2023/11/01 05:43:41;;;;;;;5.40;2.53;;;;;;;;;;6306721;28;20044;-96
2023/11/01 05:46:44;;;;;;;4.13;2.38;;;;;;;;;;6303079;28;20275;-94
2023/11/01 05:49:46;;;;;;;5.27;2.23;;;;;;;;;;6306858;28;20044;-96
2023/11/01 05:52:50;;;;;;;3.67;2.03;;;;;;;;;;6304872;28;20059;-96
2023/11/01 05:55:52;;;;;;;3.45;2.20;;;;;;;;;;6299202;28;20121;-95
2023/11/01 05:58:57;;;;;;;3.55;2.10;;;;;;;;;;6307480;28;20148;-96
2023/11/01 06:01:59;;;;;;;4.60;2.13;;;;;;;;;;6307431;28;20052;-95
2023/11/01 06:05:01;;;;;;;4.70;2.40;;;;;;;;;;6303357;28;20148;-96
2023/11/01 06:08:03;;;;;;;3.42;2.13;;;;;;;;;;6302772;28;20056;-96
2023/11/01 06:11:07;;;;;;;3.88;2.15;;;;;;;;;;6304841;28;20056;-96
2023/11/01 06:14:11;;;;;;;10.45;2.50;;;;;;;;;;6303796;28;20045;-96
2023/11/01 06:17:13;;;;;;;4.07;2.50;;;;;;;;;;6302625;28;20052;-94
2023/11/01 06:20:15;;;;;;;3.38;2.40;;;;;;;;;;6308889;28;20112;-96
2023/11/01 06:23:17;;;;;;;5.05;2.65;;;;;;;;;;6303088;28;20060;-96
2023/11/01 06:26:19;;;;;;;5.20;2.97;;;;;;;;;;6304656;28;20064;-96
2023/11/01 06:29:22;;;;;;;5.78;2.53;;;;;;;;;;6303273;28;20102;-95
2023/11/01 06:32:24;;;;;;;4.90;2.90;;;;;;;;;;6310512;28;20059;-96
2023/11/01 06:35:26;;;;;;;5.07;2.80;;;;;;;;;;6304732;28;20071;-96
2023/11/01 06:38:28;;;;;;;4.55;2.75;;;;;;;;;;6300579;28;20059;-96
2023/11/01 06:41:30;;;;;;;4.10;2.35;;;;;;;;;;6301995;28;20048;-96
2023/11/01 06:44:39;;;;;;;5.38;2.30;;;;;;;;;;6304214;28;20071;-96
2023/11/01 06:48:01;;;;;;;3.97;2.72;;;;;;;;;;6304031;28;20044;-96
2023/11/01 06:51:04;;;;;;;5.78;2.60;;;;;;;;;;6302673;28;20082;-96
2023/11/01 06:54:06;;;;;;;2.92;2.00;;;;;;;;;;6299806;28;20049;-96
2023/11/01 06:57:08;;;;;;;5.05;2.55;;;;;;;;;;6301118;28;20055;-96
2023/11/01 07:00:13;;;;;;;5.80;2.58;;;;;;;;;;6302483;28;20247;-96
2023/11/01 07:03:16;;;;;;;4.63;2.17;;;;;;;;;;6304973;28;20056;-96
2023/11/01 07:06:18;;;;;;;3.57;2.20;;;;;;;;;;6304389;28;20052;-91
2023/11/01 07:09:22;;;;;;;3.55;2.40;;;;;;;;;;6306650;28;20063;-95
2023/11/01 07:12:33;;;;;;;3.15;2.35;;;;;;;;;;6298381;28;20075;-95
2023/11/01 07:15:37;;;;;;;4.07;2.30;;;;;;;;;;6298858;28;20048;-96
2023/11/01 07:18:40;;;;;;;244.05;17.13;;;;;;;;;;6266546;28;20066;-95
2023/11/01 07:21:45;;;;;;;30.35;3.80;;;;;;;;;;6302799;28;20049;-92
2023/11/01 07:24:47;;;;;;;4.03;2.15;;;;;;;;;;6300310;28;20043;-94
2023/11/01 07:27:49;;;;;;;4.90;1.90;;;;;;;;;;6304516;28;20107;-94
2023/11/01 07:30:53;;;;;;;4.38;2.00;;;;;;;;;;6307027;28;20348;-96
2023/11/01 07:33:54;;;;;;;2.92;1.60;;;;;;;;;;6304526;28;20244;-94
2023/11/01 07:40:13;;;;;;;3.10;2.00;;;;;;;;;;6306219;28;20049;-94
2023/11/01 07:43:15;;;;;;;3.85;1.77;;;;;;;;;;6304462;28;20067;-95
2023/11/01 07:46:19;;;;;;;4.18;2.17;;;;;;;;;;6303036;28;20056;-93
2023/11/01 07:49:21;;;;;;;2.88;1.85;;;;;;;;;;6304321;28;20059;-94
2023/11/01 07:52:23;;;;;;;2.85;1.60;;;;;;;;;;6307287;28;20057;-95
2023/11/01 07:55:25;;;;;;;4.32;2.17;;;;;;;;;;6292383;28;20049;-96
2023/11/01 07:58:27;;;;;;;1.92;1.50;;;;;;;;;;6309783;28;20056;-96
2023/11/01 08:01:32;;;;;;;2.90;1.70;;;;;;;;;;6303151;28;20052;-95
2023/11/01 08:04:34;;;;;;;3.10;1.77;;;;;;;;;;6305245;28;20063;-96
2023/11/01 08:07:36;;;;;;;4.03;1.60;;;;;;;;;;6303151;28;20067;-96
2023/11/01 08:10:38;;;;;;;2.05;1.50;;;;;;;;;;6311999;28;20056;-96
2023/11/01 08:13:41;;;;;;;3.15;1.70;;;;;;;;;;6310546;28;20075;-96
2023/11/01 08:16:47;;;;;;;3.95;1.50;;;;;;;;;;6304100;28;20044;-95
2023/11/01 08:19:49;;;;;;;2.95;1.60;;;;;;;;;;6303098;28;20052;-95
2023/11/01 08:22:51;;;;;;;2.47;1.27;;;;;;;;;;6304567;28;20343;-94
2023/11/01 08:25:54;;;;;;;3.80;1.63;;;;;;;;;;6305162;28;20045;-95
2023/11/01 08:28:56;;;;;;;3.80;1.40;;;;;;;;;;6308590;28;20123;-96
2023/11/01 08:31:59;;;;;;;2.17;1.52;;;;;;;;;;6304631;28;20583;-95
2023/11/01 08:35:21;;;;;;;2.05;1.23;;;;;;;;;;6292838;28;20044;-95
2023/11/01 08:38:23;;;;;;;3.97;1.30;;;;;;;;;;6300964;28;20048;-95
2023/11/01 08:41:25;;;;;;;2.42;1.45;;;;;;;;;;6302675;28;20052;-94
2023/11/01 08:44:27;;;;;;;2.33;1.25;;;;;;;;;;6306729;28;20049;-94
2023/11/01 08:47:46;;;;;;;3.53;1.25;;;;;;;;;;6307130;28;20044;-94
2023/11/01 08:50:48;;;;;;;4.70;1.40;;;;;;;;;;6304067;28;20118;-95
2023/11/01 08:53:50;;;;;;;2.60;1.40;;;;;;;;;;6306726;28;20041;-94
2023/11/01 08:56:52;;;;;;;4.00;1.20;;;;;;;;;;6308520;28;20404;-94
2023/11/01 08:59:57;;;;;;;4.50;1.50;;;;;;;;;;6307811;28;20047;-93
2023/11/01 09:06:16;;;;;;;5.55;1.30;;;;;;;;;;6307062;28;20047;-93
2023/11/01 09:09:18;;;;;;;4.20;2.03;;;;;;;;;;6305498;28;20051;-95
2023/11/01 09:12:21;;;;;;;4.18;2.30;;;;;;;;;;6309620;28;20040;-93
2023/11/01 09:15:24;;;;;;;6.35;2.70;;;;;;;;;;6261896;28;20133;-95
2023/11/01 09:18:29;;;;;;;4.30;2.33;;;;;;;;;;6256674;28;20087;-92
2023/11/01 09:21:35;;;;;;;;;;;;;;;;;;6252678;28;20261;-93
2023/11/01 09:24:37;;;;;;;3.53;1.80;;;;;;;;;;6303287;28;19925;-94
2023/11/01 09:27:39;;;;;;;4.78;1.85;;;;;;;;;;6304773;28;20059;-92
2023/11/01 09:30:41;;;;;;;3.63;1.67;;;;;;;;;;6299428;28;20217;-94
2023/11/01 09:33:48;;;;;;;3.70;1.30;;;;;;;;;;6260563;28;20052;-94
2023/11/01 09:36:51;;;;;;;2.38;1.40;;;;;;;;;;6304394;28;20243;-92
2023/11/01 09:39:53;;;;;;;2.67;1.33;;;;;;;;;;6308724;28;20048;-94
2023/11/01 09:42:55;;;;;;;3.47;1.30;;;;;;;;;;6306056;28;20083;-95
2023/11/01 09:45:58;;;;;;;1.77;1.17;;;;;;;;;;6310094;28;20071;-95
2023/11/01 09:49:22;;;;;;;3.58;1.58;;;;;;;;;;6304396;28;20072;-94
2023/11/01 09:52:43;;;;;;;2.83;1.30;;;;;;;;;;6293601;28;20063;-95
2023/11/01 09:55:46;;;;;;;2.20;1.50;;;;;;;;;;6309899;28;20048;-95
2023/11/01 09:58:48;;;;;;;1.98;1.10;;;;;;;;;;6302436;28;22489;-96
2023/11/01 10:01:57;;;;;;;1.75;1.23;;;;;;;;;;6303930;28;20059;-96
2023/11/01 10:05:01;;;;;;;1.73;0.98;;;;;;;;;;6305539;28;20657;-96
2023/11/01 10:08:23;;;;;;;3.55;1.38;;;;;;;;;;6284154;28;20098;-95
2023/11/01 10:11:25;;;;;;;3.70;1.17;;;;;;;;;;6303323;28;20142;-93
2023/11/01 10:14:30;;;;;;;2.10;1.10;;;;;;;;;;6306523;28;20059;-96
2023/11/01 10:17:32;;;;;;;1.52;0.95;;;;;;;;;;6303195;28;20055;-96
2023/11/01 10:20:36;;;;;;;3.00;1.15;;;;;;;;;;6304821;28;20563;-95
2023/11/01 10:23:38;;;;;;;3.20;1.10;;;;;;;;;;6284167;28;20147;-96
2023/11/01 10:30:06;;;;;;;2.10;1.00;;;;;;;;;;6301100;28;20036;-96
2023/11/01 10:33:08;;;;;;;1.77;1.25;;;;;;;;;;6309686;28;20056;-96
2023/11/01 10:36:12;;;;;;;2.15;1.30;;;;;;;;;;6301707;28;20120;-96
2023/11/01 10:39:14;;;;;;;2.05;0.90;;;;;;;;;;6305539;28;20160;-95
2023/11/01 10:42:17;;;;;;;3.03;0.98;;;;;;;;;;6304141;28;20116;-96
2023/11/01 10:45:19;;;;;;;2.67;1.25;;;;;;;;;;6300532;28;20057;-95
2023/11/01 10:48:22;;;;;;;1.95;1.15;;;;;;;;;;6308830;28;20206;-96
2023/11/01 11:02:53;;;;;;;5.80;1.45;;;;;;;;;;6145499;28;20122;-96
2023/11/01 11:05:55;;;;;;;2.70;1.10;;;;;;;;;;6249278;28;20053;-96
2023/11/01 11:09:21;;;;;;;1.73;1.05;;;;;;;;;;6256402;28;20119;-94
2023/11/01 11:12:24;;;;;;;1.60;1.13;;;;;;;;;;6258221;28;20115;-95
2023/11/01 11:16:02;;;;;;;2.00;1.23;;;;;;;;;;6260207;28;20045;-96
2023/11/01 11:19:05;;;;;;;2.13;1.33;;;;;;;;;;6251754;28;20041;-94
2023/11/01 11:22:07;;;;;;;4.78;1.60;;;;;;;;;;6259149;28;20072;-96
2023/11/01 11:25:09;;;;;;;2.90;1.80;;;;;;;;;;6226941;28;20403;-96
2023/11/01 11:28:11;;;;;;;2.33;1.38;;;;;;;;;;6258915;28;20048;-96
2023/11/01 11:31:18;;;;;;;4.55;1.48;;;;;;;;;;6267952;28;20043;-94
2023/11/01 11:34:21;;;;;;;2.38;1.52;;;;;;;;;;6325031;28;20085;-94
2023/11/01 11:37:29;;;;;;;2.65;1.77;;;;;;;;;;6330484;28;20052;-96
2023/11/01 11:40:32;;;;;;;3.90;1.63;;;;;;;;;;6330748;28;20263;-96
2023/11/01 11:44:03;;;;;;;3.00;1.75;;;;;;;;;;6313327;28;20052;-96
2023/11/01 11:47:32;;;;;;;2.20;1.33;;;;;;;;;;6331923;28;20035;-94
2023/11/01 11:50:35;;;;;;;3.15;1.50;;;;;;;;;;6312033;28;20248;-96
2023/11/01 11:53:45;;;;;;;2.78;1.60;;;;;;;;;;6315242;28;20332;-94
2023/11/01 11:56:48;;;;;;;4.60;2.08;;;;;;;;;;6332126;28;20270;-94
2023/11/01 11:59:50;;;;;;;2.40;1.67;;;;;;;;;;6332434;28;20055;-96
2023/11/01 12:02:54;;;;;;;2.05;1.50;;;;;;;;;;6330335;28;20244;-96
2023/11/01 12:06:01;;;;;;;2.30;1.52;;;;;;;;;;6313651;28;20366;-96
2023/11/01 12:09:03;;;;;;;4.22;1.83;;;;;;;;;;6301520;28;20047;-94
2023/11/01 12:12:10;;;;;;;32.72;5.82;;;;;;;;;;6312780;28;20236;-94
2023/11/01 12:15:12;;;;;;;12.85;4.25;;;;;;;;;;6330756;28;20279;-95
2023/11/01 12:18:17;;;;;;;22.67;6.70;;;;;;;;;;6314841;28;20105;-92
2023/11/01 12:21:19;;;;;;;4.72;2.88;;;;;;;;;;6332471;28;20055;-96
2023/11/01 12:24:22;;;;;;;5.18;1.98;;;;;;;;;;6331296;28;21066;-96
2023/11/01 12:27:29;;;;;;;6.97;2.73;;;;;;;;;;6332405;28;20110;-96
2023/11/01 12:30:35;;;;;;;2.30;1.63;;;;;;;;;;6326210;28;20052;-96
2023/11/01 12:33:39;;;;;;;5.22;2.10;;;;;;;;;;6330841;28;20044;-96
2023/11/01 12:36:41;;;;;;;3.28;2.03;;;;;;;;;;6315236;28;20047;-96
2023/11/01 12:40:04;;;;;;;3.80;2.30;;;;;;;;;;6316374;28;20040;-96
2023/11/01 12:43:11;;;;;;;6.85;2.00;;;;;;;;;;6314278;28;20040;-96
2023/11/01 12:46:15;;;;;;;5.22;2.30;;;;;;;;;;6328557;28;20051;-95
2023/11/01 12:52:35;;;;;;;3.42;2.45;;;;;;;;;;6325892;28;20044;-95
2023/11/01 12:55:37;;;;;;;6.50;2.90;;;;;;;;;;6328280;28;20060;-95
2023/11/01 12:58:39;;;;;;;4.90;2.30;;;;;;;;;;6326273;28;20058;-96
2023/11/01 13:01:41;;;;;;;4.70;2.70;;;;;;;;;;6332601;28;20056;-93
2023/11/01 13:04:44;;;;;;;4.95;2.47;;;;;;;;;;6329503;28;20115;-95
2023/11/01 13:07:46;;;;;;;3.97;2.30;;;;;;;;;;6314229;28;20047;-91
2023/11/01 13:10:49;;;;;;;3.15;2.20;;;;;;;;;;6326760;28;20056;-89
2023/11/01 13:13:51;;;;;;;3.60;2.10;;;;;;;;;;6333488;28;20048;-95
2023/11/01 13:16:53;;;;;;;4.00;2.55;;;;;;;;;;6330620;28;20314;-94
2023/11/01 13:19:56;;;;;;;3.90;2.30;;;;;;;;;;6333451;28;20066;-96
2023/11/01 13:22:58;;;;;;;6.75;2.83;;;;;;;;;;6313940;28;20047;-95
2023/11/01 13:26:00;;;;;;;4.38;2.30;;;;;;;;;;6327695;28;20048;-96
2023/11/01 13:29:03;;;;;;;12.80;3.05;;;;;;;;;;6311587;28;20040;-94
2023/11/01 13:32:05;;;;;;;3.45;2.38;;;;;;;;;;6332190;28;20054;-93
2023/11/01 13:35:09;;;;;;;3.45;2.30;;;;;;;;;;6327768;28;20048;-95
2023/11/01 13:38:11;;;;;;;3.70;2.10;;;;;;;;;;6327508;28;20353;-94
2023/11/01 13:41:13;;;;;;;4.43;2.50;;;;;;;;;;6330533;28;20055;-96
2023/11/01 13:44:15;;;;;;;4.65;2.85;;;;;;;;;;6330520;28;20075;-94
2023/11/01 13:47:17;;;;;;;3.30;2.17;;;;;;;;;;6312408;28;20056;-93
2023/11/01 13:50:21;;;;;;;4.72;2.45;;;;;;;;;;6330460;28;20040;-94
2023/11/01 13:53:24;;;;;;;6.45;2.75;;;;;;;;;;6310039;28;20052;-91
2023/11/01 13:56:25;;;;;;;5.43;1.90;;;;;;;;;;6325550;28;20040;-93
2023/11/01 13:59:27;;;;;;;4.05;2.28;;;;;;;;;;6333459;28;20566;-96
2023/11/01 14:02:31;;;;;;;3.22;2.38;;;;;;;;;;6328096;28;20328;-96
2023/11/01 14:05:35;;;;;;;4.35;2.40;;;;;;;;;;6331019;28;20268;-92
2023/11/01 14:08:37;;;;;;;3.10;2.38;;;;;;;;;;6307276;28;20054;-94
2023/11/01 14:11:39;;;;;;;3.20;2.22;;;;;;;;;;6311149;28;20051;-94
2023/11/01 14:14:41;;;;;;;3.47;2.72;;;;;;;;;;6327965;28;20123;-95
2023/11/01 14:17:43;;;;;;;47.38;23.45;;;;;;;;;;6326125;28;20056;-94
2023/11/01 14:24:04;;;;;;;25.90;13.00;;;;;;;;;;6282203;28;20044;-94
2023/11/01 14:27:06;;;;;;;35.60;17.10;;;;;;;;;;6329080;28;20111;-95
2023/11/01 14:30:08;;;;;;;9.35;5.05;;;;;;;;;;6329719;28;20051;-95
2023/11/01 14:33:10;;;;;;;5.68;3.00;;;;;;;;;;6328441;28;20353;-96
2023/11/01 14:36:14;;;;;;;5.13;2.60;;;;;;;;;;6308447;28;20047;-94
2023/11/01 14:39:16;;;;;;;4.30;2.60;;;;;;;;;;6330220;28;20344;-95
2023/11/01 14:42:18;;;;;;;4.20;2.47;;;;;;;;;;6332374;28;20051;-94
2023/11/01 14:45:20;;;;;;;7.22;3.10;;;;;;;;;;6332932;28;20043;-95
2023/11/01 14:48:21;;;;;;;10.23;3.53;;;;;;;;;;6334151;28;20044;-94
2023/11/01 14:51:25;;;;;;;4.22;3.28;;;;;;;;;;6328477;28;20056;-96
2023/11/01 14:54:27;;;;;;;4.65;3.80;;;;;;;;;;6313455;28;20060;-96
2023/11/01 14:57:29;;;;;;;7.10;3.33;;;;;;;;;;6329775;28;20067;-95
2023/11/01 15:00:31;;;;;;;5.05;3.50;;;;;;;;;;6330444;28;20138;-96
2023/11/01 15:03:32;;;;;;;7.53;3.88;;;;;;;;;;6332920;28;20284;-93
2023/11/01 15:06:36;;;;;;;5.88;3.53;;;;;;;;;;6313458;28;20060;-94
2023/11/01 15:09:38;;;;;;;4.30;3.20;;;;;;;;;;6334365;28;20062;-94
2023/11/01 15:12:40;;;;;;;4.55;3.60;;;;;;;;;;6331907;28;20240;-94
2023/11/01 15:15:41;;;;;;;5.45;3.30;;;;;;;;;;6330579;28;20068;-95
2023/11/01 15:18:43;;;;;;;4.97;3.53;;;;;;;;;;6313577;28;20040;-93
2023/11/01 15:21:48;;;;;;;5.43;3.17;;;;;;;;;;6332967;28;20067;-94
2023/11/01 15:24:51;;;;;;;3.70;2.97;;;;;;;;;;6331915;28;20188;-94
2023/11/01 15:27:53;;;;;;;4.60;3.20;;;;;;;;;;6332149;28;20055;-94
2023/11/01 15:30:55;;;;;;;4.95;3.45;;;;;;;;;;6335782;28;20504;-96
2023/11/01 15:33:56;;;;;;;4.80;3.78;;;;;;;;;;6334535;28;20101;-93
2023/11/01 15:37:00;;;;;;;6.00;3.65;;;;;;;;;;6335173;28;20052;-93
2023/11/01 15:40:02;;;;;;;5.45;3.80;;;;;;;;;;6294710;28;20328;-95
2023/11/01 15:43:04;;;;;;;5.35;3.60;;;;;;;;;;6314364;28;20115;-92
2023/11/01 15:46:06;;;;;;;6.10;3.90;;;;;;;;;;6332006;28;20058;-93
2023/11/01 15:49:08;;;;;;;6.28;3.85;;;;;;;;;;6315983;28;20052;-94
2023/11/01 15:52:11;;;;;;;5.40;3.75;;;;;;;;;;6335708;28;20058;-95
2023/11/01 15:55:13;;;;;;;7.47;4.72;;;;;;;;;;6314602;28;20048;-94
2023/11/01 15:58:15;;;;;;;5.78;4.45;;;;;;;;;;6332694;28;20120;-95
2023/11/01 16:01:19;;;;;;;5.20;3.65;;;;;;;;;;6334371;28;20064;-96
2023/11/01 16:04:21;;;;;;;6.22;4.60;;;;;;;;;;6315562;28;20053;-96
2023/11/01 16:07:24;;;;;;;6.05;4.30;;;;;;;;;;6332765;28;20062;-95
2023/11/01 16:10:26;;;;;;;6.05;4.70;;;;;;;;;;6312654;28;20278;-93
2023/11/01 16:13:28;;;;;;;5.85;4.70;;;;;;;;;;6329853;28;20047;-96
2023/11/01 16:16:30;;;;;;;6.35;5.00;;;;;;;;;;6331818;28;20329;-95
2023/11/01 16:19:32;;;;;;;5.80;4.47;;;;;;;;;;6296298;28;20051;-94
2023/11/01 16:22:35;;;;;;;9.82;5.78;;;;;;;;;;6333042;28;20048;-94
2023/11/01 16:25:37;;;;;;;8.75;6.38;;;;;;;;;;6331408;28;20059;-95
2023/11/01 16:28:39;;;;;;;6.55;4.97;;;;;;;;;;6333872;28;20047;-94
2023/11/01 16:31:41;;;;;;;5.05;4.10;;;;;;;;;;6328364;28;20142;-95
2023/11/01 16:34:44;;;;;;;6.28;4.72;;;;;;;;;;6327869;28;20052;-95
2023/11/01 16:37:48;;;;;;;6.82;4.60;;;;;;;;;;6328457;28;20435;-95
2023/11/01 16:40:49;;;;;;;6.03;4.32;;;;;;;;;;6332696;28;20377;-94
2023/11/01 16:43:51;;;;;;;7.75;4.30;;;;;;;;;;6332122;28;20386;-96
2023/11/01 16:46:53;;;;;;;6.00;4.00;;;;;;;;;;6328513;28;20108;-95
2023/11/01 16:49:56;;;;;;;9.60;4.80;;;;;;;;;;6328484;28;20217;-96
2023/11/01 16:52:59;;;;;;;6.63;4.57;;;;;;;;;;6327380;28;20059;-96
2023/11/01 16:56:01;;;;;;;5.70;4.35;;;;;;;;;;6331252;28;20062;-95
2023/11/01 16:59:03;;;;;;;4.47;3.97;;;;;;;;;;6330598;28;20070;-96
2023/11/01 17:02:07;;;;;;;8.73;5.00;;;;;;;;;;6329998;28;20140;-94
2023/11/01 17:05:09;;;;;;;7.90;4.78;;;;;;;;;;6329285;28;20052;-95
2023/11/01 17:08:13;;;;;;;6.70;4.65;;;;;;;;;;6333821;28;20056;-96
2023/11/01 17:11:15;;;;;;;6.30;4.80;;;;;;;;;;6328472;28;20056;-94
2023/11/01 17:14:17;;;;;;;7.88;4.38;;;;;;;;;;6329661;28;20379;-95
2023/11/01 17:17:19;;;;;;;7.15;4.60;;;;;;;;;;6331761;28;20044;-96
2023/11/01 17:20:21;;;;;;;7.25;5.03;;;;;;;;;;6326537;28;20058;-95
2023/11/01 17:23:24;;;;;;;9.02;5.10;;;;;;;;;;6314189;28;20040;-95
2023/11/01 17:26:27;;;;;;;9.38;5.20;;;;;;;;;;6326432;28;20048;-94
2023/11/01 17:29:31;;;;;;;8.90;5.30;;;;;;;;;;6312263;28;20048;-94
2023/11/01 17:32:33;;;;;;;6.97;5.20;;;;;;;;;;6331820;28;20082;-95
2023/11/01 17:35:35;;;;;;;11.10;5.55;;;;;;;;;;6318907;28;20059;-92
2023/11/01 17:38:40;;;;;;;7.57;5.22;;;;;;;;;;6329472;28;20378;-92
2023/11/01 17:42:00;;;;;;;8.45;5.80;;;;;;;;;;6313254;28;20057;-94
2023/11/01 17:45:02;;;;;;;8.07;5.80;;;;;;;;;;6330036;28;20075;-93
2023/11/01 17:48:04;;;;;;;9.15;6.25;;;;;;;;;;6328077;28;20040;-95
2023/11/01 17:51:06;;;;;;;9.00;6.68;;;;;;;;;;6333272;28;20063;-95
2023/11/01 17:54:12;;;;;;;9.90;6.40;;;;;;;;;;6327683;28;20044;-96
2023/11/01 17:57:14;;;;;;;8.15;5.90;;;;;;;;;;6308627;28;20107;-96
2023/11/01 18:00:17;;;;;;;8.10;5.38;;;;;;;;;;6305153;28;20066;-95
2023/11/01 18:03:20;;;;;;;7.55;5.80;;;;;;;;;;6310983;28;20539;-94
2023/11/01 18:06:23;;;;;;;7.85;6.20;;;;;;;;;;6309820;28;20104;-94
2023/11/01 18:09:26;;;;;;;9.38;6.05;;;;;;;;;;6327367;28;20045;-94
2023/11/01 18:12:30;;;;;;;9.23;6.40;;;;;;;;;;6325752;28;20054;-96
2023/11/01 18:15:34;;;;;;;8.60;5.70;;;;;;;;;;6330940;28;20044;-93
2023/11/01 18:18:41;;;;;;;8.73;6.03;;;;;;;;;;6325438;28;20044;-96
2023/11/01 18:21:42;;;;;;;8.90;5.43;;;;;;;;;;6330755;28;20052;-92
2023/11/01 18:24:49;;;;;;;7.55;6.05;;;;;;;;;;6322450;28;20237;-95
2023/11/01 18:27:50;;;;;;;9.18;7.18;;;;;;;;;;6296828;28;20055;-96
2023/11/01 18:30:53;;;;;;;11.00;6.47;;;;;;;;;;6329969;28;20055;-96
2023/11/01 18:33:58;;;;;;;8.85;5.93;;;;;;;;;;6307967;28;20490;-94
2023/11/01 18:37:02;;;;;;;8.48;6.05;;;;;;;;;;6304461;28;20105;-95
2023/11/01 18:43:24;;;;;;;10.27;6.50;;;;;;;;;;6317071;28;20068;-95
2023/11/01 18:50:14;;;;;;;9.30;6.43;;;;;;;;;;6314885;28;20044;-95
2023/11/01 18:53:21;;;;;;;10.02;6.43;;;;;;;;;;6329764;28;20058;-95
2023/11/01 19:00:02;;;;;;;10.13;6.38;;;;;;;;;;6328733;28;20123;-91
2023/11/01 19:03:06;;;;;;;8.93;6.40;;;;;;;;;;6325551;28;20075;-93
2023/11/01 19:06:08;;;;;;;12.77;7.15;;;;;;;;;;6333586;28;20151;-96
2023/11/01 19:09:10;;;;;;;10.52;7.25;;;;;;;;;;6331927;28;20345;-96